createdAt,value
2019-02-28T00:01:47.337Z,100682.79
2019-02-28T00:04:18.515Z,100684.15
2019-02-28T00:06:47.998Z,100681.95
2019-02-28T00:09:17.666Z,100682.18
2019-02-28T00:11:47.231Z,100676.52
2019-02-28T00:14:16.814Z,100669.50
2019-02-28T00:16:46.446Z,100678.45
2019-02-28T00:19:16.162Z,100676.11
2019-02-28T00:21:45.775Z,100669.67
2019-02-28T00:24:15.432Z,100668.34
2019-02-28T00:26:47.670Z,100673.42
2019-02-28T00:29:16.695Z,100664.00
2019-02-28T00:31:49.506Z,100660.49
2019-02-28T00:34:17.762Z,100653.72
2019-02-28T00:36:50.274Z,100653.45
2019-02-28T00:39:18.828Z,100646.05
2019-02-28T00:41:48.365Z,100644.88
2019-02-28T00:44:18.009Z,100638.16
2019-02-28T00:46:47.686Z,100640.29
2019-02-28T00:49:17.333Z,100633.05
2019-02-28T00:51:46.993Z,100636.41
2019-02-28T00:54:16.788Z,100630.09
2019-02-28T00:56:51.639Z,100633.16
2019-02-28T00:59:17.869Z,100625.61
2019-02-28T01:01:47.419Z,100620.71
2019-02-28T01:04:17.093Z,100621.08
2019-02-28T01:06:46.860Z,100624.47
2019-02-28T01:09:16.520Z,100623.62
2019-02-28T01:11:46.279Z,100617.34
2019-02-28T01:14:16.025Z,100620.72
2019-02-28T01:16:45.924Z,100612.91
2019-02-28T01:19:15.700Z,100607.43
2019-02-28T01:21:45.386Z,100613.72
2019-02-28T01:24:14.973Z,100616.55
2019-02-28T01:26:46.734Z,100608.23
2019-02-28T01:29:16.081Z,100606.97
2019-02-28T01:31:45.781Z,100596.29
2019-02-28T01:34:15.322Z,100590.84
2019-02-28T01:36:45.891Z,100587.64
2019-02-28T01:39:16.421Z,100585.52
2019-02-28T01:41:46.060Z,100576.91
2019-02-28T01:44:15.629Z,100581.06
2019-02-28T01:46:48.530Z,100581.09
2019-02-28T01:49:16.675Z,100577.11
2019-02-28T01:51:46.326Z,100574.06
2019-02-28T01:54:15.995Z,100570.56
2019-02-28T01:56:45.774Z,100562.49
2019-02-28T01:59:15.330Z,100565.27
2019-02-28T02:01:44.973Z,100559.13
2019-02-28T02:04:14.712Z,100561.36
2019-02-28T02:06:44.572Z,100560.50
2019-02-28T02:09:14.219Z,100552.84
2019-02-28T02:11:43.836Z,100556.50
2019-02-28T02:14:13.598Z,100555.32
2019-02-28T02:16:43.154Z,100549.52
2019-02-28T02:19:17.567Z,100543.19
2019-02-28T02:21:44.290Z,100540.16
2019-02-28T02:24:13.865Z,100539.73
2019-02-28T02:26:45.248Z,100541.78
2019-02-28T02:29:14.985Z,100533.98
2019-02-28T02:31:44.523Z,100529.66
2019-02-28T02:34:14.194Z,100525.75
2019-02-28T02:36:43.851Z,100520.44
2019-02-28T02:39:17.541Z,100518.45
2019-02-28T02:41:44.805Z,100512.67
2019-02-28T02:44:14.674Z,100511.94
2019-02-28T02:46:44.235Z,100510.38
2019-02-28T02:49:18.528Z,100500.14
2019-02-28T02:51:50.493Z,100504.72
2019-02-28T02:54:19.928Z,100501.36
2019-02-28T02:56:48.094Z,100504.41
2019-02-28T02:59:17.731Z,100494.85
2019-02-28T03:01:47.412Z,100493.20
2019-02-28T03:04:22.883Z,100486.88
2019-02-28T03:06:48.534Z,100494.86
2019-02-28T03:09:18.320Z,100491.59
2019-02-28T03:11:47.902Z,100485.46
2019-02-28T03:14:17.740Z,100485.67
2019-02-28T03:16:47.326Z,100481.29
2019-02-28T03:19:16.863Z,100487.54
2019-02-28T03:21:51.371Z,100481.17
2019-02-28T03:24:18.039Z,100474.55
2019-02-28T03:26:47.677Z,100474.89
2019-02-28T03:29:17.323Z,100471.07
2019-02-28T03:31:54.888Z,100465.77
2019-02-28T03:34:18.324Z,100460.97
2019-02-28T03:36:55.145Z,100460.05
2019-02-28T03:39:24.075Z,100465.39
2019-02-28T03:41:52.923Z,100469.78
2019-02-28T03:44:22.165Z,100462.88
2019-02-28T03:46:51.899Z,100461.72
2019-02-28T03:49:21.490Z,100454.55
2019-02-28T03:51:51.329Z,100466.28
2019-02-28T03:54:20.801Z,100453.91
2019-02-28T03:56:52.785Z,100455.29
2019-02-28T03:59:21.904Z,100466.67
2019-02-28T04:01:51.545Z,100462.74
2019-02-28T04:04:21.350Z,100467.27
2019-02-28T04:06:50.873Z,100464.16
2019-02-28T04:09:20.455Z,100463.47
2019-02-28T04:11:50.082Z,100463.91
2019-02-28T04:14:19.745Z,100465.36
2019-02-28T04:16:54.089Z,100465.23
2019-02-28T04:19:22.657Z,100467.90
2019-02-28T04:21:52.272Z,100467.81
2019-02-28T04:24:21.885Z,100468.27
2019-02-28T04:26:51.551Z,100467.63
2019-02-28T04:29:21.162Z,100463.58
2019-02-28T04:31:51.651Z,100469.83
2019-02-28T04:34:22.160Z,100463.70
2019-02-28T04:36:51.814Z,100468.01
2019-02-28T04:39:22.788Z,100467.38
2019-02-28T04:41:52.860Z,100467.81
2019-02-28T04:44:22.514Z,100468.41
2019-02-28T04:46:52.156Z,100465.10
2019-02-28T04:49:22.654Z,100460.46
2019-02-28T04:51:52.623Z,100455.53
2019-02-28T04:54:24.543Z,100453.00
2019-02-28T04:56:53.775Z,100455.76
2019-02-28T04:59:23.432Z,100456.86
2019-02-28T05:01:53.135Z,100455.91
2019-02-28T05:04:22.766Z,100449.59
2019-02-28T05:06:55.329Z,100452.93
2019-02-28T05:09:23.822Z,100451.72
2019-02-28T05:11:53.554Z,100458.78
2019-02-28T05:14:23.711Z,100454.61
2019-02-28T05:16:54.174Z,100463.91
2019-02-28T05:19:23.974Z,100472.97
2019-02-28T05:21:54.334Z,100463.75
2019-02-28T05:24:23.943Z,100464.39
2019-02-28T05:26:53.538Z,100465.60
2019-02-28T05:29:23.136Z,100451.53
2019-02-28T05:31:52.790Z,100457.78
2019-02-28T05:34:23.651Z,100460.06
2019-02-28T05:36:53.329Z,100461.97
2019-02-28T05:39:22.994Z,100467.67
2019-02-28T05:41:52.625Z,100469.95
2019-02-28T05:44:22.226Z,100472.59
2019-02-28T05:46:51.875Z,100463.76
2019-02-28T05:49:21.509Z,100459.50
2019-02-28T05:51:51.786Z,100460.03
2019-02-28T05:54:27.102Z,100456.25
2019-02-28T05:57:22.444Z,100451.69
2019-02-28T05:59:52.826Z,100452.06
2019-02-28T06:02:23.555Z,100450.64
2019-02-28T06:04:55.748Z,100447.05
2019-02-28T06:07:28.721Z,100452.12
2019-02-28T06:10:02.871Z,100459.22
2019-02-28T06:12:32.461Z,100471.25
2019-02-28T06:15:05.029Z,100471.25
2019-02-28T06:17:34.683Z,100468.17
2019-02-28T06:20:04.614Z,100472.43
2019-02-28T06:22:36.568Z,100472.62
2019-02-28T06:25:06.286Z,100468.80
2019-02-28T06:27:41.798Z,100474.68
2019-02-28T06:30:12.254Z,100466.84
2019-02-28T06:32:41.890Z,100471.59
2019-02-28T06:35:15.979Z,100474.05
2019-02-28T06:37:42.727Z,100469.76
2019-02-28T06:40:13.648Z,100474.19
2019-02-28T06:42:46.830Z,100472.34
2019-02-28T06:45:15.106Z,100472.80
2019-02-28T06:47:47.963Z,100473.84
2019-02-28T06:50:15.849Z,100490.03
2019-02-28T06:52:45.211Z,100485.86
2019-02-28T06:55:18.928Z,100488.91
2019-02-28T06:57:48.634Z,100485.51
2019-02-28T07:00:18.484Z,100494.95
2019-02-28T07:02:49.979Z,100499.12
2019-02-28T07:05:24.366Z,100505.45
2019-02-28T07:07:50.415Z,100510.15
2019-02-28T07:10:20.202Z,100508.34
2019-02-28T07:12:49.931Z,100508.56
2019-02-28T07:15:24.014Z,100507.02
2019-02-28T07:17:51.730Z,100509.00
2019-02-28T07:20:21.394Z,100508.88
2019-02-28T07:22:54.190Z,100507.26
2019-02-28T07:25:22.566Z,100513.70
2019-02-28T07:27:52.209Z,100501.74
2019-02-28T07:30:21.942Z,100499.21
2019-02-28T07:32:51.442Z,100497.97
2019-02-28T07:35:21.085Z,100493.05
2019-02-28T07:37:54.311Z,100489.50
2019-02-28T07:40:21.755Z,100499.08
2019-02-28T07:42:51.119Z,100507.09
2019-02-28T07:45:20.527Z,100506.77
2019-02-28T07:47:52.660Z,100511.63
2019-02-28T07:50:21.053Z,100520.95
2019-02-28T07:52:50.445Z,100513.78
2019-02-28T07:55:19.901Z,100513.34
2019-02-28T07:57:53.256Z,100507.06
2019-02-28T08:00:20.485Z,100509.13
2019-02-28T08:02:49.846Z,100501.14
2019-02-28T08:05:19.262Z,100499.73
2019-02-28T08:07:51.966Z,100497.01
2019-02-28T08:10:20.222Z,100492.48
2019-02-28T08:12:49.607Z,100495.05
2019-02-28T08:15:22.481Z,100495.03
2019-02-28T08:17:52.182Z,100499.25
2019-02-28T08:20:21.707Z,100504.34
2019-02-28T08:22:51.093Z,100500.89
2019-02-28T08:25:20.493Z,100507.39
2019-02-28T08:27:49.945Z,100491.19
2019-02-28T08:30:21.097Z,100494.75
2019-02-28T08:32:50.593Z,100491.74
2019-02-28T08:35:20.383Z,100500.45
2019-02-28T08:37:55.353Z,100498.76
2019-02-28T08:40:21.392Z,100497.19
2019-02-28T08:42:50.891Z,100493.67
2019-02-28T08:45:20.243Z,100500.70
2019-02-28T08:47:55.235Z,100500.91
2019-02-28T08:50:23.459Z,100498.88
2019-02-28T08:52:52.810Z,100494.39
2019-02-28T08:55:28.809Z,100495.53
2019-02-28T08:57:55.939Z,100486.24
2019-02-28T09:00:31.022Z,100492.95
2019-02-28T09:02:55.654Z,100497.33
2019-02-28T09:05:26.356Z,100497.87
2019-02-28T09:07:58.216Z,100493.69
2019-02-28T09:10:27.440Z,100505.82
2019-02-28T09:12:57.123Z,100508.83
2019-02-28T09:15:29.860Z,100512.88
2019-02-28T09:17:59.421Z,100505.30
2019-02-28T09:20:28.724Z,100505.12
2019-02-28T09:23:01.642Z,100511.17
2019-02-28T09:25:29.284Z,100510.19
2019-02-28T09:27:58.743Z,100506.47
2019-02-28T09:30:30.882Z,100500.56
2019-02-28T09:33:00.304Z,100498.75
2019-02-28T09:35:29.713Z,100496.68
2019-02-28T09:38:00.282Z,100502.06
2019-02-28T09:40:30.583Z,100502.69
2019-02-28T09:43:00.064Z,100492.85
2019-02-28T09:45:29.470Z,100488.17
2019-02-28T09:48:02.012Z,100495.42
2019-02-28T09:50:30.014Z,100493.94
2019-02-28T09:52:59.411Z,100488.67
2019-02-28T09:55:34.286Z,100483.81
2019-02-28T09:57:59.960Z,100486.55
2019-02-28T10:00:29.610Z,100473.67
2019-02-28T10:02:59.047Z,100471.50
2019-02-28T10:05:28.525Z,100479.52
2019-02-28T10:08:01.579Z,100478.95
2019-02-28T10:10:29.106Z,100485.37
2019-02-28T10:12:58.569Z,100481.05
2019-02-28T10:15:27.971Z,100468.44
2019-02-28T10:18:00.786Z,100461.25
2019-02-28T10:20:28.793Z,100456.91
2019-02-28T10:22:58.193Z,100446.05
2019-02-28T10:25:27.797Z,100456.39
2019-02-28T10:28:01.404Z,100460.22
2019-02-28T10:30:32.302Z,100458.52
2019-02-28T10:32:59.540Z,100452.87
2019-02-28T10:35:28.997Z,100455.49
2019-02-28T10:37:58.920Z,100451.13
2019-02-28T10:40:28.686Z,100455.20
2019-02-28T10:42:58.231Z,100451.38
2019-02-28T10:45:27.864Z,100446.42
2019-02-28T10:47:57.227Z,100437.25
2019-02-28T10:50:31.946Z,100440.83
2019-02-28T10:52:58.134Z,100435.52
2019-02-28T10:55:27.629Z,100446.32
2019-02-28T10:57:56.999Z,100444.97
2019-02-28T11:00:32.681Z,100451.73
2019-02-28T11:03:01.649Z,100442.56
2019-02-28T11:05:32.275Z,100440.37
2019-02-28T11:08:02.372Z,100435.04
2019-02-28T11:10:35.478Z,100428.19
2019-02-28T11:13:05.088Z,100431.13
2019-02-28T11:15:34.500Z,100424.38
2019-02-28T11:18:08.584Z,100414.11
2019-02-28T11:20:35.101Z,100413.52
2019-02-28T11:23:04.609Z,100406.27
2019-02-28T11:25:35.552Z,100416.03
2019-02-28T11:28:05.076Z,100395.23
2019-02-28T11:30:36.092Z,100390.69
2019-02-28T11:33:05.636Z,100394.13
2019-02-28T11:35:35.310Z,100390.44
2019-02-28T11:38:05.097Z,100379.38
2019-02-28T11:40:35.493Z,100387.66
2019-02-28T11:43:05.127Z,100388.41
2019-02-28T11:45:35.080Z,100373.61
2019-02-28T11:48:05.505Z,100389.29
2019-02-28T11:50:34.877Z,100375.07
2019-02-28T11:53:06.002Z,100375.70
2019-02-28T11:55:35.655Z,100368.10
2019-02-28T11:58:05.156Z,100374.45
2019-02-28T12:00:35.818Z,100366.52
2019-02-28T12:03:06.000Z,100356.08
2019-02-28T12:05:35.529Z,100362.49
2019-02-28T12:08:09.223Z,100354.86
2019-02-28T12:10:36.244Z,100346.21
2019-02-28T12:13:05.649Z,100342.22
2019-02-28T12:15:38.170Z,100333.70
2019-02-28T12:18:06.293Z,100328.41
2019-02-28T12:20:35.939Z,100321.33
2019-02-28T12:23:05.360Z,100323.55
2019-02-28T12:25:34.742Z,100315.31
2019-02-28T12:28:06.573Z,100317.28
2019-02-28T12:30:35.343Z,100308.61
2019-02-28T12:33:04.761Z,100310.07
2019-02-28T12:35:40.004Z,100303.13
2019-02-28T12:38:05.751Z,100302.07
2019-02-28T12:40:35.184Z,100304.17
2019-02-28T12:43:05.424Z,100301.20
2019-02-28T12:45:37.469Z,100297.70
2019-02-28T12:48:07.119Z,100304.19
2019-02-28T12:50:36.726Z,100295.55
2019-02-28T12:53:06.443Z,100295.45
2019-02-28T12:55:39.062Z,100295.42
2019-02-28T12:58:07.473Z,100295.03
2019-02-28T13:00:38.060Z,100285.27
2019-02-28T13:03:09.153Z,100284.81
2019-02-28T13:05:39.051Z,100279.67
2019-02-28T13:08:08.679Z,100275.81
2019-02-28T13:10:38.306Z,100278.02
2019-02-28T13:13:08.080Z,100275.05
2019-02-28T13:15:38.518Z,100274.09
2019-02-28T13:18:09.497Z,100268.02
2019-02-28T13:20:39.199Z,100273.70
2019-02-28T13:23:08.874Z,100269.70
2019-02-28T13:25:38.586Z,100265.11
2019-02-28T13:28:08.432Z,100265.91
2019-02-28T13:30:39.962Z,100263.89
2019-02-28T13:33:10.907Z,100249.67
2019-02-28T13:35:45.694Z,100263.48
2019-02-28T13:38:17.680Z,100252.55
2019-02-28T13:40:44.838Z,100255.66
2019-02-28T13:43:20.862Z,100251.27
2019-02-28T13:45:50.877Z,100250.06
2019-02-28T13:48:25.699Z,100256.63
2019-02-28T13:50:49.482Z,100253.05
2019-02-28T13:53:19.097Z,100249.70
2019-02-28T13:55:52.796Z,100252.24
2019-02-28T13:58:21.638Z,100261.59
2019-02-28T14:00:52.756Z,100250.53
2019-02-28T14:03:22.478Z,100251.98
2019-02-28T14:05:52.157Z,100254.73
2019-02-28T14:08:21.946Z,100245.89
2019-02-28T14:10:51.657Z,100252.30
2019-02-28T14:13:21.361Z,100250.53
2019-02-28T14:15:52.342Z,100240.89
2019-02-28T14:18:22.436Z,100242.80
2019-02-28T14:20:52.187Z,100244.36
2019-02-28T14:23:21.826Z,100241.55
2019-02-28T14:25:51.608Z,100241.64
2019-02-28T14:28:21.622Z,100247.14
2019-02-28T14:30:54.353Z,100244.02
2019-02-28T14:33:22.952Z,100254.85
2019-02-28T14:35:52.568Z,100245.80
2019-02-28T14:38:22.037Z,100249.69
2019-02-28T14:40:52.831Z,100247.74
2019-02-28T14:43:23.033Z,100245.88
2019-02-28T14:45:52.649Z,100251.31
2019-02-28T14:48:22.313Z,100257.36
2019-02-28T14:50:53.970Z,100260.47
2019-02-28T14:53:23.313Z,100258.91
2019-02-28T14:55:53.044Z,100258.30
2019-02-28T14:58:22.776Z,100253.38
2019-02-28T15:00:52.458Z,100253.86
2019-02-28T15:03:22.195Z,100254.77
2019-02-28T15:05:52.451Z,100242.75
2019-02-28T15:08:23.287Z,100252.38
2019-02-28T15:10:53.295Z,100263.52
2019-02-28T15:13:23.041Z,100267.27
2019-02-28T15:15:53.491Z,100249.69
2019-02-28T15:18:23.865Z,100259.94
2019-02-28T15:20:53.537Z,100256.76
2019-02-28T15:23:23.258Z,100241.43
2019-02-28T15:25:54.102Z,100273.05
2019-02-28T15:28:24.480Z,100257.78
2019-02-28T15:30:54.207Z,100274.72
2019-02-28T15:33:23.883Z,100267.94
2019-02-28T15:35:53.526Z,100271.44
2019-02-28T15:38:23.218Z,100276.92
2019-02-28T15:40:55.739Z,100273.23
2019-02-28T15:43:25.596Z,100282.49
2019-02-28T15:45:55.249Z,100279.70
2019-02-28T15:48:24.858Z,100280.30
2019-02-28T15:50:54.551Z,100296.89
2019-02-28T15:53:24.233Z,100309.60
2019-02-28T15:55:53.895Z,100308.91
2019-02-28T15:58:23.614Z,100306.64
2019-02-28T16:00:56.337Z,100311.84
2019-02-28T16:03:25.063Z,100333.83
2019-02-28T16:05:56.210Z,100340.44
2019-02-28T16:08:28.266Z,100347.83
2019-02-28T16:10:57.278Z,100354.66
2019-02-28T16:13:26.978Z,100357.67
2019-02-28T16:15:56.629Z,100356.72
2019-02-28T16:18:26.276Z,100364.12
2019-02-28T16:20:55.907Z,100373.59
2019-02-28T16:23:27.600Z,100376.34
2019-02-28T16:25:56.726Z,100385.11
2019-02-28T16:28:26.343Z,100386.16
2019-02-28T16:30:56.194Z,100394.11
2019-02-28T16:33:25.980Z,100387.23
2019-02-28T16:35:55.642Z,100388.70
2019-02-28T16:38:25.389Z,100387.45
2019-02-28T16:40:57.732Z,100386.64
2019-02-28T16:43:26.682Z,100394.67
2019-02-28T16:45:56.440Z,100395.50
2019-02-28T16:48:26.082Z,100403.13
2019-02-28T16:50:56.896Z,100408.84
2019-02-28T16:53:26.627Z,100409.66
2019-02-28T16:55:56.322Z,100424.59
2019-02-28T16:58:26.157Z,100434.56
2019-02-28T17:00:55.722Z,100430.70
2019-02-28T17:03:25.405Z,100425.61
2019-02-28T17:05:55.212Z,100424.31
2019-02-28T17:08:28.275Z,100428.27
2019-02-28T17:10:58.102Z,100423.36
2019-02-28T17:13:38.733Z,100427.10
2019-02-28T17:16:19.950Z,100415.88
2019-02-28T17:18:49.833Z,100417.23
2019-02-28T17:21:19.516Z,100409.68
2019-02-28T17:23:49.060Z,100417.53
2019-02-28T17:26:21.022Z,100411.51
2019-02-28T17:28:58.543Z,100407.89
2019-02-28T17:31:53.028Z,100412.56
2019-02-28T17:34:24.432Z,100413.05
2019-02-28T17:36:54.409Z,100404.38
2019-02-28T17:39:24.160Z,100418.06
2019-02-28T17:41:53.748Z,100414.52
2019-02-28T17:44:49.723Z,100415.41
2019-02-28T17:47:44.635Z,100414.94
2019-02-28T17:50:42.944Z,100421.08
2019-02-28T17:53:45.683Z,100416.72
2019-02-28T17:57:01.497Z,100420.42
2019-02-28T18:00:20.993Z,100426.94
2019-02-28T18:03:22.451Z,100419.28
2019-02-28T18:06:29.448Z,100416.27
2019-02-28T18:09:29.431Z,100421.42
2019-02-28T18:13:04.383Z,100421.29
2019-02-28T18:15:45.956Z,100415.64
2019-02-28T18:19:05.173Z,100408.28
2019-02-28T18:22:07.544Z,100411.05
2019-02-28T18:25:17.313Z,100401.00
2019-02-28T18:28:22.867Z,100397.80
2019-02-28T18:31:19.184Z,100387.92
2019-02-28T18:34:22.236Z,100390.82
2019-02-28T18:36:51.811Z,100377.70
2019-02-28T18:39:21.723Z,100377.55
2019-02-28T18:41:51.369Z,100378.59
2019-02-28T18:44:21.029Z,100386.36
2019-02-28T18:46:51.507Z,100380.84
2019-02-28T18:49:21.046Z,100376.71
2019-02-28T18:52:11.451Z,100378.48
2019-02-28T18:54:41.565Z,100375.16
2019-02-28T18:57:11.708Z,100373.19
2019-02-28T18:59:41.648Z,100374.66
2019-02-28T19:02:11.253Z,100368.19
2019-02-28T19:04:40.904Z,100378.31
2019-02-28T19:07:11.091Z,100385.50
2019-02-28T19:09:40.779Z,100392.55
2019-02-28T19:12:10.496Z,100392.39
2019-02-28T19:14:40.173Z,100397.20
2019-02-28T19:17:09.884Z,100393.81
2019-02-28T19:19:39.483Z,100395.80
2019-02-28T19:22:09.054Z,100400.84
2019-02-28T19:24:38.774Z,100403.04
2019-02-28T19:27:08.383Z,100405.27
2019-02-28T19:29:38.063Z,100400.00
2019-02-28T19:32:07.712Z,100398.73
2019-02-28T19:34:37.373Z,100399.31
2019-02-28T19:37:07.041Z,100386.28
2019-02-28T19:39:36.954Z,100393.73
2019-02-28T19:42:06.586Z,100389.03
2019-02-28T19:44:36.205Z,100381.80
2019-02-28T19:47:05.781Z,100377.39
2019-02-28T19:49:35.343Z,100373.11
2019-02-28T19:52:24.429Z,100366.66
2019-02-28T19:54:54.382Z,100370.77
2019-02-28T19:57:24.071Z,100375.31
2019-02-28T19:59:53.847Z,100380.31
2019-02-28T20:02:23.400Z,100382.68
2019-02-28T20:04:53.030Z,100377.03
2019-02-28T20:07:22.703Z,100377.77
2019-02-28T20:09:52.366Z,100371.64
2019-02-28T20:12:22.152Z,100371.56
2019-02-28T20:14:51.781Z,100362.20
2019-02-28T20:17:21.521Z,100362.17
2019-02-28T20:19:51.316Z,100365.60
2019-02-28T20:22:21.005Z,100367.02
2019-02-28T20:24:50.852Z,100364.84
2019-02-28T20:27:20.506Z,100364.61
2019-02-28T20:29:55.055Z,100361.98
2019-02-28T20:32:21.604Z,100364.77
2019-02-28T20:34:51.407Z,100371.48
2019-02-28T20:37:21.207Z,100363.05
2019-02-28T20:39:51.518Z,100356.86
2019-02-28T20:42:21.949Z,100357.09
2019-02-28T20:44:51.699Z,100342.59
2019-02-28T20:47:21.245Z,100335.11
2019-02-28T20:49:50.938Z,100336.24
2019-02-28T20:52:20.811Z,100329.88
2019-02-28T20:54:50.604Z,100333.84
2019-02-28T20:57:20.345Z,100338.02
2019-02-28T20:59:50.329Z,100330.20
2019-02-28T21:02:19.946Z,100323.66
2019-02-28T21:04:49.513Z,100323.70
2019-02-28T21:07:19.189Z,100322.16
2019-02-28T21:09:49.031Z,100320.13
2019-02-28T21:12:18.708Z,100315.88
2019-02-28T21:14:48.394Z,100312.66
2019-02-28T21:17:18.447Z,100305.83
2019-02-28T21:19:48.116Z,100301.44
2019-02-28T21:22:17.709Z,100303.77
2019-02-28T21:24:47.329Z,100299.69
2019-02-28T21:27:17.092Z,100297.08
2019-02-28T21:29:46.738Z,100301.70
2019-02-28T21:32:16.499Z,100292.31
2019-02-28T21:34:46.071Z,100292.35
2019-02-28T21:37:16.468Z,100293.80
2019-02-28T21:39:46.090Z,100284.24
2019-02-28T21:42:16.279Z,100294.20
2019-02-28T21:44:46.312Z,100292.48
2019-02-28T21:47:16.086Z,100293.94
2019-02-28T21:49:46.054Z,100285.22
2019-02-28T21:52:15.721Z,100282.30
2019-02-28T21:55:05.830Z,100275.27
2019-02-28T21:57:35.281Z,100276.57
2019-02-28T22:00:05.958Z,100273.64
2019-02-28T22:02:35.567Z,100274.98
2019-02-28T22:05:05.893Z,100274.98
2019-02-28T22:07:35.846Z,100259.17
2019-02-28T22:10:05.771Z,100257.15
2019-02-28T22:12:35.316Z,100256.80
2019-02-28T22:15:05.508Z,100248.84
2019-02-28T22:17:35.318Z,100248.14
2019-02-28T22:20:04.977Z,100244.14
2019-02-28T22:22:34.917Z,100237.61
2019-02-28T22:25:04.874Z,100245.96
2019-02-28T22:27:34.502Z,100238.60
2019-02-28T22:30:19.361Z,100238.31
2019-02-28T22:32:52.936Z,100235.54
2019-02-28T22:35:34.774Z,100234.96
2019-02-28T22:38:04.482Z,100237.21
2019-02-28T22:40:34.136Z,100239.89
2019-02-28T22:43:03.798Z,100231.15
2019-02-28T22:45:33.529Z,100238.32
2019-02-28T22:48:03.431Z,100238.44
2019-02-28T22:50:33.063Z,100240.16
2019-02-28T22:53:03.160Z,100231.18
2019-02-28T22:55:32.800Z,100227.94
2019-02-28T22:58:08.282Z,100218.92
2019-02-28T23:00:52.625Z,100215.48
2019-02-28T23:03:22.344Z,100216.14
2019-02-28T23:05:52.019Z,100216.25
2019-02-28T23:08:21.664Z,100211.61
2019-02-28T23:10:51.309Z,100205.61
2019-02-28T23:13:20.993Z,100196.95
2019-02-28T23:15:50.645Z,100197.06
2019-02-28T23:18:20.269Z,100191.56
2019-02-28T23:20:49.879Z,100193.29
2019-02-28T23:23:19.530Z,100184.78
2019-02-28T23:25:49.082Z,100182.95
2019-02-28T23:28:32.997Z,100183.86
2019-02-28T23:31:52.581Z,100182.70
2019-02-28T23:34:29.245Z,100183.84
2019-02-28T23:36:58.782Z,100179.34
2019-02-28T23:39:28.236Z,100178.26
2019-02-28T23:41:57.881Z,100182.26
2019-02-28T23:44:27.653Z,100182.28
2019-02-28T23:46:57.294Z,100187.62
2019-02-28T23:49:27.093Z,100172.02
2019-02-28T23:51:56.739Z,100176.25
2019-02-28T23:54:26.418Z,100178.77
2019-02-28T23:56:56.061Z,100169.86
2019-02-28T23:59:25.822Z,100167.30
